Time;durP1;ratioP1;P1;durP2;ratioP2;P2;SDS_P1;SDS_P2;PMS_P1;PMS_P2;Temp;Humidity;BMP_temperature;BMP_pressure;BME280_temperature;BME280_humidity;BME280_pressure;Samples;Min_cycle;Max_cycle;Signal;HPM_P1;HPM_P2
2022/12/11 00:00:37;;;;;;;21.10;14.90;;;;;;;14.46;83.22;92587.19;5088470;28;20309;-48
2022/12/11 00:03:04;;;;;;;20.77;16.07;;;;;;;14.50;83.38;92603.81;5088368;28;20189;-46
2022/12/11 00:05:32;;;;;;;26.10;16.77;;;;;;;14.51;83.24;92610.53;5088326;28;20182;-47
2022/12/11 00:07:59;;;;;;;21.50;15.63;;;;;;;14.48;83.29;92598.88;5088639;28;20194;-49
2022/12/11 00:10:26;;;;;;;22.53;15.43;;;;;;;14.46;83.18;92593.13;5088851;28;20252;-49
2022/12/11 00:12:53;;;;;;;20.37;15.40;;;;;;;14.50;83.33;92601.22;5088185;28;20231;-48
2022/12/11 00:15:20;;;;;;;24.20;15.20;;;;;;;14.50;83.36;92614.88;5088484;28;20316;-50
2022/12/11 00:17:47;;;;;;;21.50;14.63;;;;;;;14.50;82.96;92580.66;5088299;28;20193;-46
2022/12/11 00:20:13;;;;;;;19.03;13.73;;;;;;;14.50;83.35;92594.28;5088808;28;20268;-47
2022/12/11 00:22:42;;;;;;;21.90;14.83;;;;;;;14.49;83.40;92590.16;5088871;28;20186;-51
2022/12/11 00:25:09;;;;;;;21.83;14.47;;;;;;;14.05;83.01;92532.81;5091963;28;20669;-49
2022/12/11 00:27:36;;;;;;;20.43;14.40;;;;;;;14.51;83.12;92595.09;5091880;28;20194;-51
2022/12/11 00:30:02;;;;;;;20.47;14.90;;;;;;;14.51;83.11;92597.69;5092002;28;20208;-53
2022/12/11 00:32:30;;;;;;;17.23;14.40;;;;;;;14.50;83.10;92598.66;5091851;28;20185;-52
2022/12/11 00:34:57;;;;;;;16.93;13.50;;;;;;;14.48;83.19;92593.75;5092100;28;20181;-49
2022/12/11 00:37:24;;;;;;;19.57;13.70;;;;;;;14.52;83.20;92599.25;5091708;28;20219;-48
2022/12/11 00:39:52;;;;;;;20.70;14.30;;;;;;;14.50;83.27;92576.28;5091977;28;20233;-54
2022/12/11 00:42:19;;;;;;;21.03;13.50;;;;;;;14.49;83.29;92579.09;5091556;28;20182;-49
2022/12/11 00:44:46;;;;;;;18.30;12.70;;;;;;;14.51;83.28;92588.19;5091295;28;20244;-51
2022/12/11 00:47:12;;;;;;;17.20;12.90;;;;;;;14.51;83.24;92585.59;5091913;28;20576;-48
2022/12/11 00:49:39;;;;;;;18.07;13.40;;;;;;;14.52;83.27;92578.66;5091858;28;20184;-48
2022/12/11 00:52:06;;;;;;;19.93;12.37;;;;;;;14.51;83.07;92593.31;5092050;28;20197;-48
2022/12/11 00:54:34;;;;;;;19.27;12.33;;;;;;;14.51;83.28;92583.03;5090744;28;20656;-48
2022/12/11 00:57:02;;;;;;;17.57;12.73;;;;;;;14.52;83.02;92569.16;5091011;28;20197;-49
2022/12/11 00:59:29;;;;;;;17.63;12.60;;;;;;;14.47;83.03;92574.13;5091255;28;20206;-51
2022/12/11 01:01:55;;;;;;;17.73;12.30;;;;;;;14.53;83.16;92593.09;5090486;28;20190;-47
2022/12/11 01:04:22;;;;;;;17.10;11.97;;;;;;;14.53;83.10;92564.81;5071285;28;20190;-48
2022/12/11 01:06:49;;;;;;;15.67;11.73;;;;;;;14.54;83.17;92584.38;5089170;28;20284;-48
2022/12/11 01:12:00;;;;;;;14.03;10.77;;;;;;;14.54;83.21;92579.22;5091431;28;20310;-49
2022/12/11 01:14:28;;;;;;;14.17;11.40;;;;;;;14.53;83.23;92583.59;5091043;28;20189;-52
2022/12/11 01:16:54;;;;;;;14.83;11.20;;;;;;;14.53;83.25;92581.03;5091557;28;20181;-48
2022/12/11 01:19:21;;;;;;;17.60;11.17;;;;;;;14.54;83.21;92579.22;5091153;28;20236;-49
2022/12/11 01:21:48;;;;;;;14.67;10.43;;;;;;;14.51;83.18;92598.47;5091119;28;20679;-48
2022/12/11 01:24:15;;;;;;;15.10;11.37;;;;;;;14.55;83.19;92601.41;5090463;28;20680;-47
2022/12/11 01:26:41;;;;;;;13.17;10.10;;;;;;;14.57;82.93;92619.97;5090612;28;20256;-49
2022/12/11 01:29:08;;;;;;;16.10;11.13;;;;;;;14.58;82.94;92569.31;5091024;28;20617;-48
2022/12/11 01:31:37;;;;;;;14.50;11.00;;;;;;;14.58;82.85;92562.38;5091116;28;20543;-49
2022/12/11 01:34:04;;;;;;;13.57;10.17;;;;;;;14.60;82.95;92557.03;5090396;28;20212;-48
2022/12/11 01:36:30;;;;;;;14.07;9.03;;;;;;;14.58;82.92;92535.88;5090862;28;20206;-47
2022/12/11 01:38:58;;;;;;;15.27;9.63;;;;;;;14.61;83.04;92517.44;5090498;28;20220;-50
2022/12/11 01:41:24;;;;;;;13.87;9.37;;;;;;;14.61;82.89;92536.22;5090756;28;20219;-49
2022/12/11 01:44:00;;;;;;;11.17;9.13;;;;;;;14.60;83.06;92559.59;5090654;28;20213;-49
2022/12/11 01:46:27;;;;;;;12.37;10.07;;;;;;;14.62;82.82;92509.50;5090627;28;20185;-49
2022/12/11 01:48:56;;;;;;;13.23;9.20;;;;;;;14.62;83.04;92498.44;5090735;28;20202;-50
2022/12/11 01:51:24;;;;;;;12.70;9.10;;;;;;;14.63;82.96;92526.50;5090754;28;20182;-50
2022/12/11 01:53:57;;;;;;;12.13;8.20;;;;;;;14.66;83.02;92549.22;5089884;28;20194;-50
2022/12/11 01:56:24;;;;;;;12.27;9.00;;;;;;;14.69;82.82;92505.06;5089600;28;20211;-49
2022/12/11 01:58:56;;;;;;;10.93;7.50;;;;;;;14.74;82.71;92509.56;5090653;28;20225;-47
2022/12/11 02:01:29;;;;;;;10.23;6.83;;;;;;;14.79;82.48;92512.28;5090293;28;20334;-48
2022/12/11 02:03:57;;;;;;;7.97;6.97;;;;;;;14.83;82.46;92528.84;5090400;28;20258;-49
2022/12/11 02:06:32;;;;;;;10.80;7.03;;;;;;;14.89;82.31;92484.22;5089377;28;20178;-48
2022/12/11 02:09:00;;;;;;;8.37;6.10;;;;;;;14.93;82.13;92492.28;5089926;28;20567;-46
2022/12/11 02:11:35;;;;;;;8.03;5.93;;;;;;;14.97;82.08;92486.50;5090085;28;20190;-48
2022/12/11 02:14:09;;;;;;;7.10;5.67;;;;;;;15.01;81.88;92500.50;5090269;28;20227;-48
2022/12/11 02:16:44;;;;;;;5.47;4.70;;;;;;;14.93;81.82;92474.28;5089710;28;20212;-47
2022/12/11 02:19:21;;;;;;;5.90;5.33;;;;;;;15.10;81.47;92443.56;5090252;28;20271;-47
2022/12/11 02:21:52;;;;;;;5.23;4.73;;;;;;;15.12;81.44;92414.03;5090137;28;20560;-48
2022/12/11 02:24:40;;;;;;;6.23;4.57;;;;;;;15.15;81.17;92416.16;5089788;28;20198;-47
2022/12/11 02:27:28;;;;;;;5.37;4.47;;;;;;;15.20;81.19;92389.75;5091053;28;20557;-48
2022/12/11 02:30:02;;;;;;;4.73;4.33;;;;;;;15.24;80.90;92390.88;5069695;28;20190;-51
2022/12/11 02:32:35;;;;;;;4.17;3.77;;;;;;;15.28;80.82;92384.25;5069626;28;20214;-48
2022/12/11 02:35:09;;;;;;;5.80;4.00;;;;;;;15.34;80.54;92416.88;5069412;28;20714;-50
2022/12/11 02:37:39;;;;;;;4.20;3.80;;;;;;;15.38;80.32;92420.56;5074984;28;20229;-48
2022/12/11 02:40:10;;;;;;;4.70;3.40;;;;;;;15.42;80.16;92411.38;5089399;28;20291;-49
2022/12/11 02:42:40;;;;;;;5.03;3.37;;;;;;;15.37;80.17;92424.16;5089911;28;20182;-48
2022/12/11 02:45:10;;;;;;;4.07;3.67;;;;;;;15.54;79.99;92417.34;5089519;28;20185;-47
2022/12/11 02:47:39;;;;;;;4.20;3.43;;;;;;;15.49;79.98;92424.94;5089607;28;20185;-50
2022/12/11 02:50:11;;;;;;;3.70;3.10;;;;;;;15.64;79.80;92449.47;5089018;28;20189;-48
2022/12/11 02:52:41;;;;;;;3.73;2.93;;;;;;;15.68;79.63;92443.69;5089904;28;20285;-47
2022/12/11 02:55:09;;;;;;;3.77;3.00;;;;;;;15.73;79.33;92458.47;5089155;28;20576;-49
2022/12/11 02:57:43;;;;;;;3.37;2.60;;;;;;;15.78;79.21;92472.25;5089637;28;20189;-48
2022/12/11 03:00:13;;;;;;;3.00;2.80;;;;;;;15.73;79.05;92456.69;5088789;28;20237;-49
2022/12/11 03:02:41;;;;;;;4.67;2.90;;;;;;;15.86;78.84;92457.47;5089369;28;20197;-48
2022/12/11 03:05:09;;;;;;;2.90;2.70;;;;;;;15.90;78.66;92448.28;5088988;28;20190;-47
2022/12/11 03:07:39;;;;;;;3.93;2.70;;;;;;;15.89;78.60;92444.91;5089018;28;20198;-48
2022/12/11 03:10:07;;;;;;;3.10;2.80;;;;;;;15.96;78.28;92452.50;5088794;28;20201;-48
2022/12/11 03:12:37;;;;;;;3.57;2.80;;;;;;;16.00;78.10;92449.25;5089161;28;20193;-48
2022/12/11 03:15:08;;;;;;;2.40;2.20;;;;;;;16.02;77.91;92431.78;5089122;28;20225;-48
2022/12/11 03:17:47;;;;;;;2.50;2.30;;;;;;;16.04;77.89;92432.34;5089146;28;20190;-47
2022/12/11 03:20:25;;;;;;;3.53;2.30;;;;;;;16.05;77.56;92417.66;5088662;28;20221;-47
2022/12/11 03:22:58;;;;;;;2.13;2.03;;;;;;;16.10;77.53;92443.53;5089450;28;20605;-48
2022/12/11 03:25:32;;;;;;;2.40;2.20;;;;;;;16.14;77.38;92436.13;5088935;28;20198;-48
2022/12/11 03:28:06;;;;;;;2.30;1.93;;;;;;;16.14;77.42;92442.06;5088904;28;20652;-47
2022/12/11 03:30:36;;;;;;;2.53;2.03;;;;;;;16.16;77.35;92432.31;5088863;28;20197;-47
2022/12/11 03:33:08;;;;;;;2.23;2.03;;;;;;;16.22;77.21;92446.09;5088412;28;20593;-47
2022/12/11 03:35:38;;;;;;;3.80;2.10;;;;;;;16.22;77.04;92459.00;5089313;28;20178;-47
2022/12/11 03:38:09;;;;;;;2.13;1.90;;;;;;;16.28;76.93;92452.94;5089181;28;20611;-46
2022/12/11 03:40:39;;;;;;;3.73;1.93;;;;;;;16.16;76.76;92454.75;5088957;28;20221;-49
2022/12/11 03:43:07;;;;;;;2.40;1.73;;;;;;;16.27;76.72;92493.38;5088248;28;20190;-48
2022/12/11 03:45:35;;;;;;;1.90;1.80;;;;;;;16.34;76.56;92495.09;5089516;28;20564;-49
2022/12/11 03:48:03;;;;;;;2.07;1.83;;;;;;;16.37;76.60;92489.47;5088854;28;20572;-47
2022/12/11 03:50:32;;;;;;;1.90;1.80;;;;;;;16.37;76.40;92516.06;5088811;28;20187;-47
2022/12/11 03:53:01;;;;;;;1.90;1.80;;;;;;;16.41;76.36;92513.81;5088336;28;20225;-47
2022/12/11 03:55:30;;;;;;;1.70;1.60;;;;;;;16.26;76.19;92504.72;5088312;28;20270;-47
2022/12/11 03:57:57;;;;;;;1.87;1.77;;;;;;;16.39;76.24;92526.13;5089698;28;20198;-48
2022/12/11 04:00:24;;;;;;;1.70;1.60;;;;;;;16.44;76.07;92547.66;5092524;28;20650;-47
2022/12/11 04:05:33;;;;;;;1.53;1.40;;;;;;;16.50;75.65;92572.56;5092115;28;20196;-54
2022/12/11 04:07:59;;;;;;;2.00;1.67;;;;;;;16.53;75.73;92569.50;5092568;28;20726;-53
2022/12/11 04:10:26;;;;;;;1.77;1.67;;;;;;;16.54;75.61;92578.06;5092093;28;20197;-50
2022/12/11 04:12:53;;;;;;;1.77;1.67;;;;;;;16.56;75.60;92576.81;5092620;28;20189;-54
2022/12/11 04:15:19;;;;;;;1.80;1.70;;;;;;;16.54;75.41;92552.25;5091542;28;20595;-55
2022/12/11 04:26:04;;;;;;;1.83;1.43;;;;;;;16.63;74.98;92599.16;5049019;28;20194;-47
2022/12/11 04:28:31;;;;;;;1.70;1.60;;;;;;;16.64;74.96;92591.16;5049198;28;20191;-48
2022/12/11 04:30:58;;;;;;;1.80;1.70;;;;;;;16.66;74.99;92617.53;5049219;28;20622;-51
2022/12/11 04:33:25;;;;;;;1.60;1.47;;;;;;;16.56;74.69;92573.44;5048902;28;20179;-52
2022/12/11 04:35:52;;;;;;;2.27;1.50;;;;;;;16.69;74.44;92604.19;5049063;28;20744;-48
2022/12/11 04:38:20;;;;;;;3.77;1.60;;;;;;;16.72;74.30;92601.19;5049087;28;20658;-48
2022/12/11 04:40:47;;;;;;;2.57;1.67;;;;;;;16.74;74.33;92598.38;5049198;28;20219;-49
2022/12/11 04:43:13;;;;;;;1.50;1.40;;;;;;;16.76;74.06;92637.66;5049248;28;20208;-48
2022/12/11 04:45:40;;;;;;;2.00;1.60;;;;;;;16.77;73.96;92613.41;5049328;28;20293;-47
2022/12/11 04:48:07;;;;;;;1.57;1.47;;;;;;;16.79;73.69;92637.19;5048988;28;20217;-48
2022/12/11 04:50:34;;;;;;;1.77;1.60;;;;;;;16.79;73.54;92650.88;5048846;28;20190;-47
2022/12/11 04:53:01;;;;;;;1.73;1.60;;;;;;;16.80;73.58;92634.41;5049385;28;20191;-49
2022/12/11 04:55:29;;;;;;;3.53;1.50;;;;;;;16.80;73.57;92644.72;5049027;28;20581;-50
2022/12/11 04:57:55;;;;;;;2.30;1.40;;;;;;;16.82;73.34;92626.41;5048226;28;20249;-49
2022/12/11 05:00:22;;;;;;;1.77;1.60;;;;;;;16.83;73.27;92653.00;5048852;28;20223;-49
2022/12/11 05:02:49;;;;;;;2.13;1.50;;;;;;;16.84;73.24;92632.16;5062145;28;20190;-49
2022/12/11 05:05:16;;;;;;;1.97;1.77;;;;;;;16.84;73.42;92646.81;5092578;28;20186;-52
2022/12/11 05:07:43;;;;;;;1.73;1.63;;;;;;;16.85;73.02;92636.28;5091496;28;20669;-47
2022/12/11 05:10:10;;;;;;;1.50;1.40;;;;;;;16.86;72.96;92624.16;5090827;28;20190;-47
2022/12/11 05:12:38;;;;;;;1.40;1.30;;;;;;;16.85;72.78;92596.78;5091895;28;20191;-48
2022/12/11 05:15:06;;;;;;;3.13;1.70;;;;;;;16.84;72.52;92587.47;5090993;28;20286;-46
2022/12/11 05:17:34;;;;;;;1.53;1.40;;;;;;;16.84;72.46;92614.09;5091222;28;20193;-48
2022/12/11 05:20:00;;;;;;;1.50;1.40;;;;;;;16.86;72.29;92606.88;5090817;28;20213;-48
2022/12/11 05:22:27;;;;;;;2.67;1.50;;;;;;;16.84;72.27;92562.44;5091380;28;20189;-48
2022/12/11 05:24:54;;;;;;;1.97;1.50;;;;;;;16.83;72.09;92619.44;5091264;28;20637;-47
2022/12/11 05:27:21;;;;;;;1.60;1.50;;;;;;;16.85;71.91;92599.38;5090800;28;20189;-48
2022/12/11 05:29:49;;;;;;;1.27;1.27;;;;;;;16.80;71.90;92569.09;5090710;28;20189;-47
2022/12/11 05:32:16;;;;;;;1.30;1.30;;;;;;;16.83;71.86;92594.41;5090458;28;20182;-47
2022/12/11 05:34:42;;;;;;;2.97;1.70;;;;;;;16.85;71.77;92599.38;5091263;28;20178;-47
2022/12/11 05:37:10;;;;;;;1.57;1.47;;;;;;;16.83;71.72;92607.31;5090803;28;20184;-47
2022/12/11 05:39:38;;;;;;;1.67;1.50;;;;;;;16.83;71.78;92612.50;5090560;28;20190;-47
2022/12/11 05:42:05;;;;;;;1.33;1.30;;;;;;;16.83;71.45;92602.16;5080373;28;20197;-50
2022/12/11 05:44:31;;;;;;;1.53;1.43;;;;;;;16.85;71.50;92622.59;5090819;28;20217;-49
2022/12/11 05:46:59;;;;;;;1.70;1.60;;;;;;;16.78;71.49;92573.66;5090363;28;20192;-47
2022/12/11 05:49:26;;;;;;;2.53;1.40;;;;;;;16.83;71.57;92599.59;5090924;28;20196;-48
2022/12/11 05:51:53;;;;;;;4.10;1.50;;;;;;;16.85;71.47;92578.72;5089646;28;20198;-48
2022/12/11 05:54:20;;;;;;;1.40;1.30;;;;;;;16.83;71.61;92586.66;5090383;28;20211;-49
2022/12/11 05:56:50;;;;;;;1.47;1.40;;;;;;;16.83;71.61;92553.13;5090261;28;20192;-48
2022/12/11 05:59:18;;;;;;;1.60;1.50;;;;;;;16.84;71.53;92583.09;5090659;28;20276;-47
2022/12/11 06:01:45;;;;;;;2.23;1.63;;;;;;;16.86;71.47;92603.53;5089683;28;20338;-47
2022/12/11 06:04:13;;;;;;;2.70;1.40;;;;;;;16.86;71.33;92578.47;5090414;28;20209;-48
2022/12/11 06:06:42;;;;;;;4.37;1.70;;;;;;;16.85;71.30;92574.34;5090606;28;20569;-47
2022/12/11 06:09:13;;;;;;;2.37;1.57;;;;;;;16.88;71.29;92550.66;5089930;28;20181;-47
2022/12/11 06:11:40;;;;;;;1.60;1.50;;;;;;;16.89;71.29;92561.75;5090363;28;20197;-50
2022/12/11 06:14:07;;;;;;;1.80;1.70;;;;;;;16.91;71.15;92603.63;5089716;28;20197;-48
2022/12/11 06:16:34;;;;;;;1.57;1.50;;;;;;;16.91;71.03;92565.66;5090187;28;20571;-51
2022/12/11 06:19:00;;;;;;;1.60;1.50;;;;;;;16.94;71.02;92606.53;5089834;28;20189;-48
2022/12/11 06:21:30;;;;;;;1.60;1.50;;;;;;;16.93;71.00;92601.59;5089242;28;20696;-48
2022/12/11 06:23:59;;;;;;;1.70;1.43;;;;;;;16.97;70.66;92585.44;5089477;28;20391;-47
2022/12/11 06:26:26;;;;;;;1.40;1.30;;;;;;;17.00;70.58;92613.34;5090453;28;20632;-46
2022/12/11 06:28:53;;;;;;;3.50;1.70;;;;;;;17.04;70.52;92601.56;5089933;28;20186;-47
2022/12/11 06:31:20;;;;;;;2.57;1.47;;;;;;;17.07;70.50;92599.56;5089298;28;20193;-48
2022/12/11 06:33:47;;;;;;;1.53;1.43;;;;;;;17.10;70.01;92604.22;5089189;28;20185;-49
2022/12/11 06:36:16;;;;;;;3.57;1.40;;;;;;;17.13;69.93;92624.44;5089211;28;20197;-47
2022/12/11 06:38:44;;;;;;;3.00;1.50;;;;;;;17.15;69.91;92645.69;5089990;28;20653;-49
2022/12/11 06:41:11;;;;;;;2.27;1.97;;;;;;;17.18;69.90;92635.66;5091472;28;20225;-50
2022/12/11 06:43:40;;;;;;;3.47;1.57;;;;;;;17.21;69.60;92650.69;5090211;28;20177;-48
2022/12/11 06:46:08;;;;;;;1.50;1.40;;;;;;;17.22;69.48;92615.31;5095287;28;20823;-47
2022/12/11 06:48:35;;;;;;;1.83;1.47;;;;;;;17.24;69.37;92618.47;5089703;28;20251;-48
2022/12/11 06:51:07;;;;;;;1.60;1.50;;;;;;;17.33;69.37;92613.72;5092304;28;20185;-50
2022/12/11 06:53:34;;;;;;;1.60;1.50;;;;;;;17.16;69.21;92619.63;5107525;28;20235;-47
2022/12/11 06:56:04;;;;;;;1.70;1.57;;;;;;;17.35;69.33;92630.56;5107223;28;20196;-48
2022/12/11 06:58:31;;;;;;;1.23;1.23;;;;;;;17.40;69.25;92635.84;5107412;28;20181;-50
2022/12/11 07:00:58;;;;;;;1.50;1.43;;;;;;;17.38;69.05;92632.69;5107044;28;20213;-48
2022/12/11 07:03:25;;;;;;;1.50;1.40;;;;;;;17.45;68.92;92669.53;5102632;28;20193;-46
2022/12/11 07:05:52;;;;;;;1.40;1.30;;;;;;;17.48;69.15;92637.25;5107238;28;20192;-47
2022/12/11 07:08:19;;;;;;;1.77;1.40;;;;;;;17.48;69.04;92621.75;5102114;28;20186;-47
2022/12/11 07:10:46;;;;;;;1.50;1.40;;;;;;;17.53;68.91;92645.91;5086420;28;20207;-49
2022/12/11 07:13:14;;;;;;;1.53;1.43;;;;;;;17.47;68.67;92618.38;5086755;28;20197;-49
2022/12/11 07:15:41;;;;;;;1.30;1.23;;;;;;;17.60;68.71;92656.09;5086750;28;20225;-47
2022/12/11 07:18:07;;;;;;;1.40;1.30;;;;;;;17.60;68.72;92645.75;5087121;28;20186;-48
2022/12/11 07:20:34;;;;;;;3.67;1.60;;;;;;;17.66;68.58;92641.47;5085733;28;20210;-49
2022/12/11 07:23:01;;;;;;;1.93;1.60;;;;;;;17.67;68.42;92654.16;5086632;28;20192;-50
2022/12/11 07:25:28;;;;;;;1.53;1.43;;;;;;;17.71;68.30;92637.19;5086583;28;20546;-48
2022/12/11 07:27:55;;;;;;;3.90;1.57;;;;;;;17.75;68.24;92635.72;5086381;28;20808;-48
2022/12/11 07:30:23;;;;;;;1.70;1.60;;;;;;;17.77;68.08;92628.53;5086745;28;20196;-47
2022/12/11 07:32:49;;;;;;;1.43;1.33;;;;;;;17.80;68.07;92646.16;5087981;28;20200;-48
2022/12/11 07:35:16;;;;;;;1.70;1.60;;;;;;;17.85;67.89;92653.22;5088644;28;20197;-47
2022/12/11 07:37:44;;;;;;;2.73;1.70;;;;;;;17.89;67.71;92658.72;5090788;28;20244;-49
2022/12/11 07:40:12;;;;;;;3.30;1.60;;;;;;;17.90;67.81;92658.47;5090553;28;20200;-48
2022/12/11 07:42:39;;;;;;;4.53;1.70;;;;;;;17.93;67.80;92681.28;5089772;28;20282;-48
2022/12/11 07:45:06;;;;;;;2.10;1.87;;;;;;;17.96;67.70;92682.63;5090196;28;20181;-47
2022/12/11 07:47:35;;;;;;;3.00;1.67;;;;;;;17.98;67.67;92654.72;5090269;28;20633;-47
2022/12/11 07:50:01;;;;;;;2.77;2.43;;;;;;;18.01;67.72;92704.19;5090120;28;20568;-48
2022/12/11 07:52:28;;;;;;;2.23;1.80;;;;;;;17.61;67.54;92646.53;5090218;28;20262;-49
2022/12/11 07:54:55;;;;;;;1.80;1.70;;;;;;;18.04;67.50;92669.31;5090713;28;20204;-49
2022/12/11 07:57:22;;;;;;;5.90;1.27;;;;;;;18.10;76.63;92663.22;5090607;28;20304;-53
2022/12/11 07:59:49;;;;;;;16.43;1.77;;;;;;;18.34;83.99;92676.78;5090540;28;20246;-48
2022/12/11 08:02:16;;;;;;;1.60;1.50;;;;;;;18.61;84.58;92694.28;5088610;28;20383;-48
2022/12/11 08:04:44;;;;;;;1.90;1.80;;;;;;;18.83;84.17;92664.09;5089979;28;20197;-50
2022/12/11 08:07:11;;;;;;;4.60;1.77;;;;;;;19.09;82.89;92656.69;5090209;28;20213;-49
2022/12/11 08:09:38;;;;;;;2.47;1.60;;;;;;;19.28;81.30;92681.25;5090214;28;20609;-52
2022/12/11 08:12:05;;;;;;;3.97;1.60;;;;;;;19.41;80.01;92682.72;5090034;28;20193;-51
2022/12/11 08:14:32;;;;;;;8.03;1.70;;;;;;;19.46;78.72;92685.38;5090029;28;20181;-50
2022/12/11 08:17:01;;;;;;;4.57;1.93;;;;;;;19.46;77.81;92706.88;5090136;28;20217;-54
2022/12/11 08:19:28;;;;;;;2.33;1.70;;;;;;;19.46;76.93;92737.22;5089493;28;20198;-48
2022/12/11 08:21:56;;;;;;;6.27;1.60;;;;;;;19.43;76.25;92722.13;5089787;28;20209;-47
2022/12/11 08:24:23;;;;;;;1.90;1.80;;;;;;;19.39;76.10;92721.84;5089475;28;20182;-47
2022/12/11 08:26:49;;;;;;;2.97;1.63;;;;;;;19.36;75.69;92717.13;5089735;28;20839;-49
2022/12/11 08:29:16;;;;;;;1.73;1.53;;;;;;;18.92;75.02;92656.72;5089664;28;20586;-53
2022/12/11 08:31:43;;;;;;;1.67;1.57;;;;;;;19.31;74.71;92714.50;5089580;28;20178;-51
2022/12/11 08:34:12;;;;;;;3.23;2.03;;;;;;;19.28;74.35;92748.66;5089266;28;20182;-53
2022/12/11 08:36:39;;;;;;;1.77;1.67;;;;;;;19.26;73.91;92717.78;5089308;28;20197;-48
2022/12/11 08:39:07;;;;;;;9.70;1.70;;;;;;;19.25;73.71;92723.19;5089871;28;20196;-58
2022/12/11 08:41:34;;;;;;;1.70;1.50;;;;;;;19.24;73.36;92696.50;5109870;28;20218;-51
2022/12/11 08:44:01;;;;;;;2.07;1.70;;;;;;;19.24;72.79;92698.31;5108919;28;20193;-55
2022/12/11 08:46:29;;;;;;;2.07;1.70;;;;;;;19.21;72.62;92719.53;5109733;28;20177;-49
2022/12/11 08:48:57;;;;;;;2.23;1.90;;;;;;;19.19;72.26;92724.94;5109846;28;20204;-55
2022/12/11 08:51:25;;;;;;;3.70;1.60;;;;;;;19.19;72.12;92714.59;5109159;28;20189;-52
2022/12/11 08:53:54;;;;;;;2.33;1.70;;;;;;;19.17;72.19;92718.44;5109370;28;20640;-51
2022/12/11 08:56:23;;;;;;;2.73;1.97;;;;;;;19.14;71.87;92713.75;5109811;28;20181;-48
2022/12/11 08:58:51;;;;;;;2.23;1.57;;;;;;;19.11;71.96;92722.75;5109789;28;20196;-57
2022/12/11 09:01:21;;;;;;;1.73;1.63;;;;;;;19.10;72.01;92725.59;5109116;28;20221;-52
2022/12/11 09:03:49;;;;;;;1.60;1.50;;;;;;;19.12;71.94;92723.53;5109533;28;20215;-52
2022/12/11 09:06:18;;;;;;;4.20;2.00;;;;;;;19.10;72.19;92699.69;5109383;28;20192;-54
2022/12/11 09:08:47;;;;;;;3.70;1.93;;;;;;;19.16;71.91;92711.69;5109260;28;20193;-52
2022/12/11 09:11:16;;;;;;;3.23;1.83;;;;;;;19.20;71.84;92716.16;5109697;28;20196;-54
2022/12/11 09:13:45;;;;;;;2.17;1.57;;;;;;;19.26;71.62;92717.78;5109245;28;20686;-53
2022/12/11 09:16:14;;;;;;;2.33;1.70;;;;;;;19.32;71.39;92708.28;5108684;28;20244;-53
2022/12/11 09:18:41;;;;;;;2.30;1.73;;;;;;;19.41;71.32;92712.00;5109058;27;20199;-48
2022/12/11 09:21:10;;;;;;;4.33;2.10;;;;;;;19.46;71.07;92708.69;5108680;28;20212;-48
2022/12/11 09:23:37;;;;;;;1.80;1.70;;;;;;;19.55;70.54;92709.84;5109277;28;20208;-56
2022/12/11 09:26:05;;;;;;;1.87;1.77;;;;;;;19.60;70.55;92725.47;5102023;28;20539;-49
2022/12/11 09:28:32;;;;;;;2.33;1.80;;;;;;;19.59;70.41;92686.81;5091419;28;20217;-52
2022/12/11 09:31:01;;;;;;;1.80;1.70;;;;;;;19.68;70.25;92713.91;5089501;28;20288;-50
2022/12/11 09:33:27;;;;;;;2.63;2.00;;;;;;;19.75;70.25;92709.34;5088006;28;20289;-53
2022/12/11 09:35:58;;;;;;;2.63;1.63;;;;;;;19.88;69.87;92708.19;5088711;28;20200;-51
2022/12/11 09:38:25;;;;;;;3.97;1.60;;;;;;;19.94;69.25;92689.03;5088873;28;20265;-55
2022/12/11 09:40:52;;;;;;;1.90;1.80;;;;;;;19.99;69.08;92684.69;5088067;28;20262;-52
2022/12/11 09:43:32;;;;;;;1.60;1.50;;;;;;;20.03;69.10;92688.38;5088172;28;20221;-48
2022/12/11 09:46:05;;;;;;;2.03;1.93;;;;;;;20.09;68.72;92680.63;5088424;28;20194;-50
2022/12/11 09:48:33;;;;;;;2.27;1.57;;;;;;;20.18;68.85;92672.16;5088587;28;20181;-49
2022/12/11 09:51:05;;;;;;;1.60;1.50;;;;;;;20.29;68.59;92689.41;5087704;28;20205;-49
2022/12/11 09:53:35;;;;;;;5.50;2.03;;;;;;;20.56;73.89;92673.03;5088529;28;20657;-49
2022/12/11 09:56:10;;;;;;;4.07;2.00;;;;;;;20.86;74.71;92666.47;5087366;28;20217;-52
2022/12/11 09:58:45;;;;;;;5.03;2.30;;;;;;;21.08;74.16;92682.72;5088738;28;20212;-49
2022/12/11 10:01:20;;;;;;;7.68;2.58;;;;;;;21.25;74.12;92678.13;5086853;28;20210;-49
2022/12/11 10:04:07;;;;;;;4.50;2.38;;;;;;;21.39;73.59;92678.47;5087852;28;20197;-51
2022/12/11 10:06:41;;;;;;;4.05;2.53;;;;;;;21.55;73.71;92671.53;5081682;28;20668;-52
2022/12/11 10:09:18;;;;;;;8.38;2.40;;;;;;;21.64;73.98;92671.81;5090224;28;20216;-53
2022/12/11 10:12:05;;;;;;;9.95;2.03;;;;;;;21.71;73.63;92680.16;5090403;28;20869;-55
2022/12/11 10:14:43;;;;;;;5.68;2.28;;;;;;;21.74;73.28;92695.25;5090360;28;20254;-54
2022/12/11 10:17:17;;;;;;;8.43;2.28;;;;;;;21.71;72.98;92669.75;5090376;28;20194;-51
2022/12/11 10:19:45;;;;;;;5.75;2.05;;;;;;;21.70;72.26;92674.16;5089633;28;20314;-51
2022/12/11 10:22:18;;;;;;;4.18;1.95;;;;;;;21.69;71.98;92675.22;5090708;28;20228;-55
2022/12/11 10:24:51;;;;;;;2.55;1.98;;;;;;;21.66;71.53;92682.75;5090388;28;20269;-51
2022/12/11 10:27:20;;;;;;;5.32;2.17;;;;;;;21.61;71.36;92673.09;5089511;28;20265;-51
2022/12/11 10:29:48;;;;;;;4.63;1.95;;;;;;;21.53;71.23;92676.97;5069630;28;20583;-50
2022/12/11 10:32:23;;;;;;;4.82;2.10;;;;;;;21.48;71.40;92684.75;5069777;28;20255;-49
2022/12/11 10:34:55;;;;;;;2.63;2.00;;;;;;;21.39;71.28;92680.31;5088015;28;20643;-53
2022/12/11 10:37:22;;;;;;;6.65;2.28;;;;;;;21.33;71.20;92678.69;5090866;28;20664;-55
2022/12/11 10:39:49;;;;;;;6.68;1.90;;;;;;;21.34;71.33;92672.47;5090532;28;20190;-56
2022/12/11 10:42:19;;;;;;;3.95;1.80;;;;;;;21.41;70.70;92657.41;5090432;28;20270;-50
2022/12/11 10:44:56;;;;;;;2.30;2.00;;;;;;;21.53;70.42;92665.78;5088910;28;20262;-53
2022/12/11 10:47:24;;;;;;;3.72;2.22;;;;;;;21.64;70.01;92657.00;5087280;28;20189;-50
2022/12/11 10:49:54;;;;;;;2.95;2.13;;;;;;;21.75;69.44;92665.59;5089513;28;20193;-55
2022/12/11 10:52:23;;;;;;;1.70;1.60;;;;;;;21.86;69.14;92654.19;5089828;28;20629;-56
2022/12/11 10:54:56;;;;;;;4.15;1.45;;;;;;;21.86;68.35;92645.59;5089791;28;20695;-59
2022/12/11 10:57:29;;;;;;;3.22;2.22;;;;;;;22.01;68.05;92641.19;5090123;28;20189;-55
2022/12/11 10:59:57;;;;;;;3.95;2.28;;;;;;;22.00;68.38;92657.84;5089346;28;20687;-50
2022/12/11 11:02:29;;;;;;;2.85;1.70;;;;;;;21.97;68.21;92644.56;5090090;28;20251;-50
2022/12/11 11:04:58;;;;;;;4.95;2.10;;;;;;;21.92;68.29;92652.38;5089826;28;20182;-51
2022/12/11 11:07:26;;;;;;;5.13;1.95;;;;;;;21.88;68.27;92643.50;5089423;28;20185;-47
2022/12/11 11:10:06;;;;;;;2.78;2.10;;;;;;;21.83;67.88;92646.88;5089807;28;20559;-48
2022/12/11 11:12:39;;;;;;;5.07;1.90;;;;;;;21.63;67.86;92616.41;5089746;28;20185;-48
2022/12/11 11:15:11;;;;;;;7.15;2.00;;;;;;;21.75;68.37;92636.97;5089174;28;20225;-50
2022/12/11 11:17:45;;;;;;;2.45;1.70;;;;;;;21.70;68.42;92640.34;5089444;28;20583;-48
2022/12/11 11:20:15;;;;;;;2.97;1.90;;;;;;;21.67;67.96;92634.88;5089200;28;20666;-48
2022/12/11 11:22:46;;;;;;;3.05;2.08;;;;;;;21.60;68.65;92632.53;5089415;28;20252;-48
2022/12/11 11:25:19;;;;;;;1.77;1.67;;;;;;;21.51;68.47;92624.44;5089269;28;20292;-49
2022/12/11 11:27:52;;;;;;;5.32;2.10;;;;;;;21.43;68.38;92624.94;5089562;28;20394;-48
2022/12/11 11:30:22;;;;;;;2.08;1.80;;;;;;;21.52;68.42;92640.81;5088772;28;20190;-49
2022/12/11 11:32:54;;;;;;;1.95;1.77;;;;;;;21.49;68.25;92636.91;5089250;28;20686;-51
2022/12/11 11:35:24;;;;;;;1.60;1.50;;;;;;;21.52;68.37;92633.81;5089027;28;20186;-53
2022/12/11 11:38:04;;;;;;;2.70;2.00;;;;;;;21.49;68.50;92629.09;5089199;28;20280;-48
2022/12/11 11:40:36;;;;;;;1.95;1.85;;;;;;;21.59;68.32;92636.19;5089128;28;20212;-55
2022/12/11 11:43:17;;;;;;;4.60;2.40;;;;;;;21.62;68.17;92627.06;5089251;28;20217;-52
2022/12/11 11:45:51;;;;;;;1.80;1.70;;;;;;;21.59;67.98;92619.75;5089228;28;20197;-53
2022/12/11 11:48:35;;;;;;;4.82;1.90;;;;;;;21.61;68.09;92626.28;5088952;28;20186;-51
2022/12/11 11:51:13;;;;;;;3.95;1.98;;;;;;;21.51;68.20;92610.66;5089235;28;20196;-54
2022/12/11 11:53:40;;;;;;;4.78;1.80;;;;;;;21.50;68.22;92607.28;5089085;28;20208;-50